• Join FlightAware (Why Join?)
  • Login
  • US Flag 
01:08PM EDT


 

Airport Tracker/Info


-or-


 

Live Flight TrackerFlight Track Log ✈ SKW7367 ✈ 29-Nov-2013 ✈ KDTW - KAPN

Flight Track Log - Related Links

Times and Time Zones

All times are in EST time to prevent confusion due to time zone crossing. See the SKW7367 flight status page for this flight to view local times or setup timezone preferences in your user account.

Time Position Orientation Groundspeed Altitude Reporting Facility
EST Latitude Longitude Course Direction KTS MPH feet Rate Location/Type
04:01PM 42.2125 -83.3653 North 141 162 1,600  Level Cleveland Center
04:02PM 42.2031 -83.3781 225° Southwest 165 190 2,400 3,240 Climbing Cleveland Center
04:03PM 42.1692 -83.4381 233° Southwest 244 281 5,900 3,000 Climbing Cleveland Center
04:03PM 42.1681 -83.4375 160° South 217 250 5,800 3,480 Descending Cleveland Center
04:04PM 42.4545 -83.3701 North  Level Estimated
04:04PM 42.1906 -83.5208 290° West 231 266 9,900  Level Cleveland Center
04:04PM 42.2147 -83.6022 292° West 289 333 11,900 2,220 Climbing Cleveland Center
04:05PM 42.5353 -83.3652 North  Level FlightAware Approximate
04:05PM 42.2203 -83.6094 316° Northwest 269 310 12,200  Level Cleveland Center
04:06PM 42.6160 -83.3711 North  Level Estimated
04:06PM 42.2958 -83.6114 359° North 338 389 13,000  Level Cleveland Center
04:06PM 42.3064 -83.6064 19° North 328 377 13,000  Level Cleveland Center
04:07PM 42.6966 -83.3644 North  Level FlightAware Approximate
04:07PM 42.3925 -83.5700 17° North 324 373 13,000  Level Cleveland Center
04:08PM 42.4814 -83.5353 16° North 323 372 15,000 960 Climbing Cleveland Center
04:09PM 42.5619 -83.5028 17° North 305 351 15,000  Level Cleveland Center
04:10PM 42.6500 -83.4697 15° North 274 315 15,000  Level Cleveland Center
04:11PM 42.7147 -83.4653 North 234 269 15,000  Level Cleveland Center
04:12PM 42.7797 -83.4675 359° North 234 269 15,000  Level Cleveland Center
04:13PM 42.8461 -83.4703 358° North 237 273 15,000  Level Cleveland Center
04:14PM 42.9150 -83.4725 359° North 245 282 15,000  Level Cleveland Center
04:15PM 42.9825 -83.4761 358° North 244 281 15,000  Level Cleveland Center
04:16PM 43.0514 -83.4786 358° North 247 284 15,000  Level Cleveland Center
04:17PM 43.1328 -83.4814 359° North 245 282 15,000  Level Cleveland Center
04:18PM 43.2017 -83.4833 359° North 247 284 15,000  Level Cleveland Center
04:19PM 43.2706 -83.4853 359° North 248 285 15,000  Level Cleveland Center
04:20PM 43.3400 -83.4886 358° North 249 287 15,000  Level Cleveland Center
04:21PM 43.4092 -83.4908 359° North 248 285 15,000  Level Cleveland Center
04:22PM 43.4781 -83.4950 357° North 249 287 15,000  Level Cleveland Center
04:23PM 43.5475 -83.4967 359° North 250 288 15,000  Level Cleveland Center
04:24PM 43.6308 -83.4997 358° North 250 288 15,000  Level Cleveland Center
04:25PM 43.6986 -83.5017 359° North 245 282 15,000  Level Cleveland Center
04:26PM 43.7672 -83.5047 358° North 246 283 15,000  Level Cleveland Center
04:27PM 43.8344 -83.5086 358° North 244 281 15,000  Level Cleveland Center
04:28PM 43.9011 -83.5097 359° North 241 277 15,000  Level Cleveland Center
04:29PM 43.9692 -83.5144 357° North 243 280 15,000  Level Cleveland Center
04:30PM 44.0364 -83.5172 358° North 244 281 15,000  Level Cleveland Center
04:31PM 44.1178 -83.5197 359° North 244 281 15,000  Level Cleveland Center
04:32PM 44.1858 -83.5228 358° North 244 281 15,000  Level Cleveland Center
04:33PM 44.2542 -83.5256 358° North 245 282 15,000  Level Cleveland Center
04:35PM 44.3242 -83.5278 359° North 246 283 15,000  Level Cleveland Center
04:36PM 44.4181 -83.5322 358° North 246 283 15,000 -300 Level Minneapolis Center
04:37PM 44.4861 -83.5353 358° North 248 285 14,300 -1,620 Descending Minneapolis Center
04:38PM 44.5550 -83.5383 358° North 250 288 11,800 -2,220 Descending Minneapolis Center
04:39PM 44.6261 -83.5419 358° North 239 275 9,800 -1,560 Descending Minneapolis Center
04:40PM 44.6839 -83.5281 10° North 214 246 8,700 -1,140 Descending Minneapolis Center
04:41PM 44.7461 -83.5203 North 211 243 7,500 -1,020 Descending Minneapolis Center
04:42PM 44.8042 -83.5200 360° North 212 244 6,700 -780 Descending Minneapolis Center
04:43PM 44.8692 -83.5186 North 216 249 6,000 -720 Descending Minneapolis Center
04:44PM 44.9289 -83.5144 North 218 251 5,300 -780 Descending Minneapolis Center
04:45PM 44.9931 -83.5081 North 217 250 4,500 -720 Descending Minneapolis Center
04:46PM 45.0517 -83.5036 North 216 249 3,900 -720 Descending Minneapolis Center
04:47PM 45.1147 -83.4964 North 215 247 3,100 -720 Descending Minneapolis Center
04:48PM 45.1622 -83.5008 356° North 185 213 2,500 -420 Descending Minneapolis Center
04:49PM 45.1647 -83.5572 274° West 147 169 2,300 -480 Descending Minneapolis Center
04:50PM 45.1311 -83.5617 185° South 127 146 1,600 -720 Descending Minneapolis Center
04:51PM 45.0961 -83.5614 180° South 119 137 900 -480 Descending Minneapolis Center
04:52PM 45.0675 -83.5617 180° South 118 136 700 -240 Descending Minneapolis Center